Palmetto, Florida
Current Conditions -  °F | °C
As of 5:53 AM on Friday 28 Nov 2014 (Local Time) from KSRQ Reporting Station
Clear Clear  
Wind Chill: 40°   Ceiling: Unl
Heat Index: 45°   Visibility: 10mi
Dew Point: 34°   Wind: 9mph
Humidity: 65%   Direction: 40°NE
Pressure: 30.28"   Gusts: NA
Location:  27.52°N, 82.57°W
Report Text: KSRQ 281053Z 04008KT 10SM CLR 07/01 A3028 RMK AO2 SLP254 T00720011
Loading
Personal Weather Stations






























Interactive Weather Map New forecast layout! Learn more

10-Day Weather Forecast

Advertisements
Track Severe Weather on mobile